createdAt,value
2022-11-04T00:00:12.327Z,95842.81
2022-11-04T00:02:39.023Z,95847.19
2022-11-04T00:05:05.816Z,95851.31
2022-11-04T00:07:50.838Z,95852.28
2022-11-04T00:10:17.387Z,95863.66
2022-11-04T00:12:44.042Z,95864.84
2022-11-04T00:15:33.982Z,95867.75
2022-11-04T00:18:00.552Z,95871.38
2022-11-04T00:20:45.491Z,95872.91
2022-11-04T00:23:30.375Z,95883.56
2022-11-04T00:26:15.534Z,95882.72
2022-11-04T00:28:44.943Z,95886.97
2022-11-04T00:31:30.497Z,95898.47
2022-11-04T00:33:58.591Z,95913.34
2022-11-04T00:36:26.102Z,95915.25
2022-11-04T00:38:53.610Z,95923.47
2022-11-04T00:41:26.737Z,95911.16
2022-11-04T00:43:59.017Z,95926.38
2022-11-04T00:46:26.908Z,95929.84
2022-11-04T00:48:53.848Z,95922.91
2022-11-04T00:51:21.589Z,95926.75
2022-11-04T00:53:48.956Z,95944.94
2022-11-04T00:56:15.546Z,95937.13
2022-11-04T00:58:42.100Z,95933.22
2022-11-04T01:01:17.771Z,95939.31
2022-11-04T01:03:45.969Z,95932.06
2022-11-04T01:06:12.624Z,95929.22
2022-11-04T01:08:39.361Z,95935.72
2022-11-04T01:11:08.401Z,95938.91
2022-11-04T01:13:35.446Z,95949.56
2022-11-04T01:16:05.592Z,95957.38
2022-11-04T01:18:32.566Z,95943.41
2022-11-04T01:21:03.813Z,95954.97
2022-11-04T01:23:30.504Z,95962.78
2022-11-04T01:25:57.442Z,95962.19
2022-11-04T01:28:24.033Z,95962.56
2022-11-04T01:30:50.605Z,95969.75
2022-11-04T01:33:17.198Z,95965.78
2022-11-04T01:35:43.811Z,95978.75
2022-11-04T01:38:11.276Z,95978.84
2022-11-04T01:40:39.904Z,95981.38
2022-11-04T01:43:18.247Z,95967.50
2022-11-04T01:45:52.126Z,95972.66
2022-11-04T01:48:26.902Z,95968.34
2022-11-04T01:50:54.546Z,95957.34
2022-11-04T01:53:32.490Z,95960.94
2022-11-04T01:56:02.532Z,95969.06
2022-11-04T01:58:33.837Z,95979.00
2022-11-04T02:01:01.606Z,95973.13
2022-11-04T02:03:35.041Z,95970.84
2022-11-04T02:06:02.887Z,95977.78
2022-11-04T02:08:30.072Z,95982.19
2022-11-04T02:11:00.381Z,95978.59
2022-11-04T02:13:28.897Z,95985.66
2022-11-04T02:16:10.645Z,95987.22
2022-11-04T02:18:52.533Z,95989.72
2022-11-04T02:21:40.308Z,95981.13
2022-11-04T02:24:42.230Z,95970.38
2022-11-04T02:27:20.684Z,95971.22
2022-11-04T02:29:55.129Z,95964.88
2022-11-04T02:32:25.141Z,95971.56
2022-11-04T02:35:16.293Z,95969.78
2022-11-04T02:37:49.996Z,95969.91
2022-11-04T02:40:41.254Z,95971.69
2022-11-04T02:43:24.314Z,95972.03
2022-11-04T02:45:59.561Z,95967.38
2022-11-04T02:48:49.402Z,95971.91
2022-11-04T02:51:27.912Z,95969.28
2022-11-04T02:54:06.940Z,95962.97
2022-11-04T02:56:37.524Z,95962.97
2022-11-04T02:59:31.757Z,95957.25
2022-11-04T03:02:01.292Z,95968.44
2022-11-04T03:04:33.390Z,95971.91
2022-11-04T03:07:03.346Z,95970.13
2022-11-04T03:09:32.469Z,95966.31
2022-11-04T03:12:06.073Z,95961.53
2022-11-04T03:14:48.789Z,95963.53
2022-11-04T03:17:45.276Z,95955.31
2022-11-04T03:20:19.220Z,95954.38
2022-11-04T03:22:46.606Z,95950.78
2022-11-04T03:25:13.737Z,95953.88
2022-11-04T03:27:49.221Z,95947.69
2022-11-04T03:30:21.647Z,95949.34
2022-11-04T03:32:48.238Z,95947.44
2022-11-04T03:35:16.444Z,95945.19
2022-11-04T03:37:44.630Z,95942.44
2022-11-04T03:40:12.927Z,95949.09
2022-11-04T03:43:03.389Z,95948.03
2022-11-04T03:45:30.053Z,95955.81
2022-11-04T03:47:58.117Z,95962.72
2022-11-04T03:50:32.693Z,95963.69
2022-11-04T03:53:00.441Z,95965.94
2022-11-04T03:55:51.194Z,95953.19
2022-11-04T03:58:32.746Z,95965.94
2022-11-04T04:01:12.185Z,95969.53
2022-11-04T04:03:48.045Z,95959.97
2022-11-04T04:06:25.269Z,95954.84
2022-11-04T04:09:05.385Z,95965.34
2022-11-04T04:11:58.126Z,95968.69
2022-11-04T04:14:42.443Z,95970.38
2022-11-04T04:17:31.118Z,95972.28
2022-11-04T04:20:02.226Z,95969.41
2022-11-04T04:22:43.193Z,95975.84
2022-11-04T04:25:31.256Z,95964.03
2022-11-04T04:27:59.259Z,95958.78
2022-11-04T04:30:26.394Z,95960.47
2022-11-04T04:32:58.186Z,95960.78
2022-11-04T04:35:43.751Z,95957.25
2022-11-04T04:38:35.049Z,95949.47
2022-11-04T04:41:42.097Z,95945.88
2022-11-04T04:44:53.152Z,95931.56
2022-11-04T04:47:24.080Z,95932.88
2022-11-04T04:49:55.852Z,95926.19
2022-11-04T04:52:24.515Z,95928.91
2022-11-04T04:54:51.134Z,95914.69
2022-11-04T04:57:17.715Z,95922.31
2022-11-04T04:59:44.374Z,95921.81
2022-11-04T05:02:11.031Z,95921.81
2022-11-04T05:04:37.741Z,95910.22
2022-11-04T05:07:04.310Z,95913.66
2022-11-04T05:09:30.898Z,95916.16
2022-11-04T05:11:57.850Z,95911.75
2022-11-04T05:14:24.581Z,95903.41
2022-11-04T05:16:51.151Z,95908.88
2022-11-04T05:19:17.746Z,95906.25
2022-11-04T05:21:44.329Z,95906.50
2022-11-04T05:24:11.161Z,95905.03
2022-11-04T05:26:37.753Z,95905.97
2022-11-04T05:29:04.569Z,95911.97
2022-11-04T05:31:31.226Z,95925.84
2022-11-04T05:33:59.763Z,95921.44
2022-11-04T05:36:26.374Z,95928.72
2022-11-04T05:38:55.651Z,95921.56
2022-11-04T05:41:28.468Z,95915.91
2022-11-04T05:43:57.113Z,95907.59
2022-11-04T05:46:24.711Z,95916.41
2022-11-04T05:48:51.483Z,95914.31
2022-11-04T05:51:21.502Z,95917.34
2022-11-04T05:53:48.343Z,95923.53
2022-11-04T05:56:15.073Z,95919.84
2022-11-04T05:58:41.686Z,95931.16
2022-11-04T06:01:41.560Z,95935.06
2022-11-04T06:04:14.754Z,95930.06
2022-11-04T06:06:41.800Z,95949.22
2022-11-04T06:09:08.690Z,95947.84
2022-11-04T06:11:37.137Z,95946.50
2022-11-04T06:14:04.076Z,95959.81
2022-11-04T06:16:30.801Z,95964.44
2022-11-04T06:19:01.586Z,95963.72
2022-11-04T06:21:33.469Z,95966.97
2022-11-04T06:24:00.503Z,95966.03
2022-11-04T06:26:28.677Z,95959.72
2022-11-04T06:28:56.642Z,95959.81
2022-11-04T06:31:23.382Z,95956.53
2022-11-04T06:33:49.978Z,95955.31
2022-11-04T06:36:17.259Z,95963.22
2022-11-04T06:38:44.136Z,95964.75
2022-11-04T06:41:13.684Z,95967.78
2022-11-04T06:43:40.352Z,95970.66
2022-11-04T06:46:25.919Z,95985.00
2022-11-04T06:48:52.887Z,95985.72
2022-11-04T06:51:19.607Z,95992.44
2022-11-04T06:53:46.253Z,95989.81
2022-11-04T06:56:12.960Z,95986.34
2022-11-04T06:58:39.617Z,95995.53
2022-11-04T07:01:13.483Z,95994.56
2022-11-04T07:03:41.283Z,95993.88
2022-11-04T07:06:09.385Z,95994.16
2022-11-04T07:08:36.254Z,95993.69
2022-11-04T07:11:03.511Z,95983.78
2022-11-04T07:13:30.117Z,95994.09
2022-11-04T07:15:57.295Z,95994.81
2022-11-04T07:18:23.939Z,95999.22
2022-11-04T07:20:50.538Z,96004.97
2022-11-04T07:23:17.457Z,96010.22
2022-11-04T07:25:44.101Z,96012.63
2022-11-04T07:28:10.982Z,96015.72
2022-11-04T07:30:37.692Z,96020.91
2022-11-04T07:33:04.277Z,96008.97
2022-11-04T07:35:30.876Z,96016.34
2022-11-04T07:37:57.479Z,96010.63
2022-11-04T07:40:24.058Z,96013.63
2022-11-04T07:42:50.896Z,96017.91
2022-11-04T07:45:18.239Z,96017.41
2022-11-04T07:47:44.935Z,96016.44
2022-11-04T07:50:11.767Z,96007.34
2022-11-04T07:52:38.595Z,96011.16
2022-11-04T07:55:06.036Z,96016.72
2022-11-04T07:57:32.634Z,96027.13
2022-11-04T07:59:59.616Z,96042.06
2022-11-04T08:02:31.106Z,96037.66
2022-11-04T08:05:00.628Z,96043.53
2022-11-04T08:07:27.217Z,96041.16
2022-11-04T08:09:53.795Z,96039.78
2022-11-04T08:12:22.167Z,96049.97
2022-11-04T08:14:48.729Z,96047.47
2022-11-04T08:17:15.295Z,96049.75
2022-11-04T08:19:41.857Z,96053.34
2022-11-04T08:22:09.251Z,96050.28
2022-11-04T08:24:35.826Z,96049.03
2022-11-04T08:27:04.689Z,96050.22
2022-11-04T08:29:31.300Z,96048.25
2022-11-04T08:31:57.871Z,96050.44
2022-11-04T08:34:24.452Z,96048.41
2022-11-04T08:36:53.161Z,96055.56
2022-11-04T08:39:20.005Z,96054.47
2022-11-04T08:41:46.654Z,96048.19
2022-11-04T08:44:14.267Z,96039.13
2022-11-04T08:46:42.523Z,96039.47
2022-11-04T08:49:11.258Z,96033.81
2022-11-04T08:51:42.911Z,96026.84
2022-11-04T08:54:10.422Z,96035.16
2022-11-04T08:56:40.747Z,96032.19
2022-11-04T08:59:08.467Z,96038.50
2022-11-04T09:01:36.760Z,96043.28
2022-11-04T09:04:04.602Z,96043.13
2022-11-04T09:06:35.945Z,96049.50
2022-11-04T09:09:04.992Z,96045.53
2022-11-04T09:11:33.604Z,96043.41
2022-11-04T09:14:01.332Z,96045.16
2022-11-04T09:16:29.984Z,96045.47
2022-11-04T09:18:58.019Z,96039.69
2022-11-04T09:21:26.061Z,96037.47
2022-11-04T09:23:52.683Z,96043.03
2022-11-04T09:26:19.530Z,96043.56
2022-11-04T09:28:46.157Z,96049.13
2022-11-04T09:31:18.626Z,96044.81
2022-11-04T09:33:45.670Z,96038.38
2022-11-04T09:36:14.198Z,96034.63
2022-11-04T09:38:42.296Z,96026.56
2022-11-04T09:41:47.263Z,96021.28
2022-11-04T09:44:30.956Z,96030.31
2022-11-04T09:47:03.026Z,96033.09
2022-11-04T09:49:36.255Z,96038.44
2022-11-04T09:52:08.739Z,96038.97
2022-11-04T09:54:47.257Z,96032.16
2022-11-04T09:57:18.647Z,96037.13
2022-11-04T09:59:47.089Z,96041.88
2022-11-04T10:02:38.820Z,96036.09
2022-11-04T10:05:32.810Z,96030.56
2022-11-04T10:08:21.015Z,96038.63
2022-11-04T10:11:05.418Z,96045.31
2022-11-04T10:13:55.025Z,96045.47
2022-11-04T10:16:48.935Z,96055.25
2022-11-04T10:19:21.725Z,96055.50
2022-11-04T10:22:10.587Z,96067.09
2022-11-04T10:24:43.434Z,96063.41
2022-11-04T10:27:17.633Z,96061.84
2022-11-04T10:29:45.629Z,96056.44
2022-11-04T10:32:22.687Z,96060.78
2022-11-04T10:34:56.579Z,96059.97
2022-11-04T10:37:25.614Z,96064.41
2022-11-04T10:40:01.401Z,96059.69
2022-11-04T10:42:28.316Z,96065.53
2022-11-04T10:44:55.009Z,96064.97
2022-11-04T10:47:26.432Z,96069.72
2022-11-04T10:50:31.801Z,96058.00
2022-11-04T10:53:12.801Z,96070.47
2022-11-04T10:55:57.526Z,96074.53
2022-11-04T10:58:27.351Z,96075.59
2022-11-04T11:00:54.681Z,96073.63
2022-11-04T11:03:34.869Z,96070.53
2022-11-04T11:06:24.987Z,96076.13
2022-11-04T11:08:54.838Z,96073.34
2022-11-04T11:11:47.833Z,96073.34
2022-11-04T11:14:48.661Z,96075.81
2022-11-04T11:17:15.219Z,96080.56
2022-11-04T11:19:58.154Z,96079.50
2022-11-04T11:22:39.830Z,96079.34
2022-11-04T11:25:24.457Z,96069.41
2022-11-04T11:27:54.650Z,96066.53
2022-11-04T11:30:28.230Z,96071.09
2022-11-04T11:33:04.026Z,96075.25
2022-11-04T11:35:42.007Z,96074.03
2022-11-04T11:38:19.055Z,96072.31
2022-11-04T11:41:03.808Z,96070.75
2022-11-04T11:43:36.692Z,96072.97
2022-11-04T11:46:03.496Z,96070.78
2022-11-04T11:48:38.595Z,96066.63
2022-11-04T11:51:06.902Z,96068.00
2022-11-04T11:53:38.183Z,96063.84
2022-11-04T11:56:26.411Z,96070.78
2022-11-04T12:02:25.704Z,96070.22
2022-11-04T12:10:54.345Z,96069.66
2022-11-04T12:13:27.222Z,96075.66
2022-11-04T12:16:31.211Z,96069.13
2022-11-04T12:19:03.823Z,96075.25
2022-11-04T12:21:39.894Z,96087.16
2022-11-04T12:24:24.464Z,96079.44
2022-11-04T12:27:15.340Z,96084.88
2022-11-04T12:30:07.794Z,96085.84
2022-11-04T12:32:53.217Z,96081.56
2022-11-04T12:35:35.523Z,96074.16
2022-11-04T12:38:23.662Z,96079.97
2022-11-04T12:41:58.829Z,96081.66
2022-11-04T12:44:33.537Z,96085.28
2022-11-04T12:47:13.767Z,96092.13
2022-11-04T12:49:46.271Z,96091.69
2022-11-04T12:52:25.295Z,96098.50
2022-11-04T12:54:58.511Z,96100.59
2022-11-04T12:58:04.239Z,96098.66
2022-11-04T13:00:32.577Z,96103.75
2022-11-04T13:03:11.342Z,96104.97
2022-11-04T13:06:01.996Z,96108.69
2022-11-04T13:08:36.633Z,96107.16
2022-11-04T13:11:24.311Z,96110.88
2022-11-04T13:14:16.286Z,96103.53
2022-11-04T13:16:46.403Z,96109.66
2022-11-04T13:19:34.697Z,96104.47
2022-11-04T13:22:07.274Z,96109.31
2022-11-04T13:24:38.627Z,96117.59
2022-11-04T13:27:18.983Z,96115.78
2022-11-04T13:29:47.535Z,96123.81
2022-11-04T13:32:28.571Z,96118.41
2022-11-04T13:35:08.189Z,96124.78
2022-11-04T13:37:43.130Z,96123.13
2022-11-04T13:40:18.211Z,96120.06
2022-11-04T13:43:28.218Z,96120.94
2022-11-04T13:45:56.506Z,96116.56
2022-11-04T13:48:26.736Z,96121.31
2022-11-04T13:51:00.822Z,96128.22
2022-11-04T13:53:40.886Z,96135.28
2022-11-04T13:56:31.682Z,96138.88
2022-11-04T13:58:58.384Z,96147.31
2022-11-04T14:01:25.134Z,96145.94
2022-11-04T14:04:29.145Z,96142.59
2022-11-04T14:06:59.519Z,96139.38
2022-11-04T14:09:28.903Z,96135.66
2022-11-04T14:12:10.598Z,96148.25
2022-11-04T14:14:38.813Z,96146.28
2022-11-04T14:17:34.606Z,96149.69
2022-11-04T14:20:31.770Z,96156.22
2022-11-04T14:23:03.737Z,96160.06
2022-11-04T14:25:44.178Z,96160.91
2022-11-04T14:28:10.780Z,96168.63
2022-11-04T14:30:37.532Z,96171.94
2022-11-04T14:33:08.489Z,96176.47
2022-11-04T14:35:36.201Z,96182.97
2022-11-04T14:38:20.018Z,96189.72
2022-11-04T14:40:54.044Z,96198.59
2022-11-04T14:43:44.297Z,96196.66
2022-11-04T14:46:18.112Z,96198.94
2022-11-04T14:48:52.099Z,96211.66
2022-11-04T14:51:33.608Z,96212.88
2022-11-04T14:54:18.779Z,96216.56
2022-11-04T14:56:46.817Z,96219.22
2022-11-04T14:59:27.967Z,96224.38
2022-11-04T15:01:55.478Z,96227.03
2022-11-04T15:04:28.064Z,96226.69
2022-11-04T15:07:02.644Z,96229.53
2022-11-04T15:09:32.624Z,96226.22
2022-11-04T15:12:33.491Z,96229.78
2022-11-04T15:15:00.618Z,96233.75
2022-11-04T15:17:31.958Z,96239.75
2022-11-04T15:20:02.038Z,96246.69
2022-11-04T15:22:30.447Z,96253.97
2022-11-04T15:25:02.750Z,96248.00
2022-11-04T15:27:30.104Z,96257.00
2022-11-04T15:30:06.076Z,96259.16
2022-11-04T15:32:32.655Z,96268.28
2022-11-04T15:34:59.849Z,96268.66
2022-11-04T15:37:28.956Z,96268.91
2022-11-04T15:39:57.861Z,96277.91
2022-11-04T15:42:37.134Z,96281.59
2022-11-04T15:45:22.157Z,96277.53
2022-11-04T15:47:49.702Z,96276.84
2022-11-04T15:50:26.104Z,96273.47
2022-11-04T15:52:56.009Z,96275.13
2022-11-04T15:55:25.949Z,96278.16
2022-11-04T15:57:55.435Z,96282.56
2022-11-04T16:00:24.932Z,96291.44
2022-11-04T16:02:55.185Z,96286.41
2022-11-04T16:05:25.436Z,96296.94
2022-11-04T16:07:54.363Z,96285.69
2022-11-04T16:10:24.886Z,96298.00
2022-11-04T16:13:16.715Z,96298.97
2022-11-04T16:15:50.384Z,96304.38
2022-11-04T16:18:42.839Z,96309.84
2022-11-04T16:21:20.311Z,96312.63
2022-11-04T16:23:51.553Z,96318.13
2022-11-04T16:26:24.657Z,96314.53
2022-11-04T16:28:57.696Z,96320.75
2022-11-04T16:31:33.394Z,96324.34
2022-11-04T16:34:00.583Z,96329.63
2022-11-04T16:36:34.013Z,96334.75
2022-11-04T16:39:04.646Z,96336.56
2022-11-04T16:41:37.608Z,96335.47
2022-11-04T16:44:05.976Z,96343.16
2022-11-04T16:46:34.162Z,96345.03
2022-11-04T16:49:00.748Z,96347.59
2022-11-04T16:51:27.351Z,96354.63
2022-11-04T16:53:54.887Z,96353.78
2022-11-04T16:56:24.941Z,96370.06
2022-11-04T16:58:52.815Z,96375.28
2022-11-04T17:01:21.255Z,96373.50
2022-11-04T17:03:48.120Z,96377.22
2022-11-04T17:06:16.661Z,96380.09
2022-11-04T17:08:43.617Z,96388.31
2022-11-04T17:11:11.077Z,96382.91
2022-11-04T17:13:38.247Z,96385.91
2022-11-04T17:16:13.014Z,96395.81
2022-11-04T17:18:39.679Z,96396.19
2022-11-04T17:21:08.010Z,96389.97
2022-11-04T17:23:34.598Z,96401.66
2022-11-04T17:26:01.850Z,96400.94
2022-11-04T17:28:28.438Z,96409.06
2022-11-04T17:30:55.218Z,96405.75
2022-11-04T17:33:22.144Z,96406.44
2022-11-04T17:35:51.374Z,96410.81
2022-11-04T17:38:18.826Z,96417.06
2022-11-04T17:41:04.658Z,96429.91
2022-11-04T17:43:49.886Z,96424.47
2022-11-04T17:46:35.413Z,96429.00
2022-11-04T17:49:08.593Z,96429.00
2022-11-04T17:51:35.986Z,96427.44
2022-11-04T17:54:02.966Z,96438.16
2022-11-04T17:56:30.757Z,96443.44
2022-11-04T17:59:00.383Z,96446.34
2022-11-04T18:01:27.720Z,96454.25
2022-11-04T18:03:54.739Z,96451.16
2022-11-04T18:06:22.290Z,96456.75
2022-11-04T18:08:49.196Z,96454.94
2022-11-04T18:11:35.964Z,96463.59
2022-11-04T18:14:02.677Z,96471.13
2022-11-04T18:16:29.293Z,96472.69
2022-11-04T18:18:58.912Z,96471.44
2022-11-04T18:21:26.600Z,96476.38
2022-11-04T18:23:55.266Z,96482.56
2022-11-04T18:26:22.147Z,96485.09
2022-11-04T18:28:48.805Z,96486.66
2022-11-04T18:31:23.336Z,96487.59
2022-11-04T18:33:50.435Z,96487.59
2022-11-04T18:36:17.046Z,96495.50
2022-11-04T18:38:44.035Z,96499.56
2022-11-04T18:41:10.814Z,96504.81
2022-11-04T18:43:37.462Z,96503.69
2022-11-04T18:46:09.052Z,96505.25
2022-11-04T18:48:37.088Z,96508.22
2022-11-04T18:51:05.486Z,96516.47
2022-11-04T18:53:32.087Z,96513.13
2022-11-04T18:56:07.369Z,96518.16
2022-11-04T18:58:35.816Z,96518.63
2022-11-04T19:01:17.539Z,96520.72
2022-11-04T19:03:44.412Z,96517.13
2022-11-04T19:06:17.671Z,96531.97
2022-11-04T19:08:46.874Z,96525.25
2022-11-04T19:11:35.585Z,96531.47
2022-11-04T19:14:09.407Z,96530.75
2022-11-04T19:16:36.341Z,96532.72
2022-11-04T19:19:06.383Z,96533.78
2022-11-04T19:21:33.688Z,96533.97
2022-11-04T19:24:00.566Z,96543.88
2022-11-04T19:26:30.328Z,96545.44
2022-11-04T19:28:57.806Z,96549.75
2022-11-04T19:31:28.065Z,96550.50
2022-11-04T19:33:58.040Z,96560.25
2022-11-04T19:36:25.620Z,96566.28
2022-11-04T19:38:54.717Z,96555.97
2022-11-04T19:41:41.602Z,96562.16
2022-11-04T19:44:13.665Z,96566.50
2022-11-04T19:46:40.406Z,96568.28
2022-11-04T19:49:08.004Z,96572.69
2022-11-04T19:51:35.790Z,96574.38
2022-11-04T19:54:02.781Z,96585.63
2022-11-04T19:56:30.611Z,96593.50
2022-11-04T19:59:00.477Z,96587.09
2022-11-04T20:01:31.641Z,96589.94
2022-11-04T20:03:58.736Z,96590.03
2022-11-04T20:06:25.574Z,96590.34
2022-11-04T20:08:53.007Z,96596.94
2022-11-04T20:11:20.525Z,96600.41
2022-11-04T20:13:47.922Z,96600.59
2022-11-04T20:16:29.852Z,96606.28
2022-11-04T20:19:00.704Z,96605.66
2022-11-04T20:21:30.292Z,96611.00
2022-11-04T20:24:02.254Z,96613.84
2022-11-04T20:26:30.902Z,96612.25
2022-11-04T20:29:00.880Z,96617.63
2022-11-04T20:31:29.907Z,96622.97
2022-11-04T20:33:57.088Z,96626.53
2022-11-04T20:36:26.487Z,96635.47
2022-11-04T20:39:00.988Z,96624.75
2022-11-04T20:41:28.342Z,96633.38
2022-11-04T20:43:55.927Z,96639.28
2022-11-04T20:46:28.166Z,96641.06
2022-11-04T20:48:56.358Z,96643.69
2022-11-04T20:51:25.340Z,96653.34
2022-11-04T20:53:56.261Z,96645.38
2022-11-04T20:56:25.317Z,96646.00
2022-11-04T20:58:58.600Z,96653.78
2022-11-04T21:01:28.990Z,96655.66
2022-11-04T21:04:18.993Z,96663.66
2022-11-04T21:06:47.943Z,96665.34
2022-11-04T21:09:16.538Z,96666.38
2022-11-04T21:11:43.382Z,96668.28
2022-11-04T21:14:14.313Z,96679.69
2022-11-04T21:16:40.965Z,96679.81
2022-11-04T21:19:08.076Z,96689.38
2022-11-04T21:21:35.028Z,96686.75
2022-11-04T21:24:06.586Z,96690.31
2022-11-04T21:26:35.253Z,96694.72
2022-11-04T21:29:06.010Z,96699.97
2022-11-04T21:31:34.325Z,96699.81
2022-11-04T21:34:01.161Z,96698.84
2022-11-04T21:36:28.120Z,96705.06
2022-11-04T21:38:55.034Z,96712.06
2022-11-04T21:41:27.998Z,96704.00
2022-11-04T21:43:56.547Z,96704.84
2022-11-04T21:46:24.051Z,96709.25
2022-11-04T21:48:50.727Z,96710.09
2022-11-04T21:51:22.231Z,96716.19
2022-11-04T21:53:48.977Z,96719.75
2022-11-04T21:56:22.125Z,96724.81
2022-11-04T21:58:48.895Z,96726.69
2022-11-04T22:01:18.726Z,96729.22
2022-11-04T22:03:52.243Z,96727.44
2022-11-04T22:06:19.277Z,96739.50
2022-11-04T22:08:49.337Z,96730.72
2022-11-04T22:11:22.554Z,96731.63
2022-11-04T22:13:53.270Z,96738.38
2022-11-04T22:16:22.685Z,96738.50
2022-11-04T22:18:52.757Z,96727.97
2022-11-04T22:21:19.916Z,96732.50
2022-11-04T22:23:46.542Z,96736.88
2022-11-04T22:26:22.250Z,96728.47
2022-11-04T22:28:48.966Z,96729.22
2022-11-04T22:31:22.632Z,96730.28
2022-11-04T22:33:50.540Z,96729.22
2022-11-04T22:36:18.071Z,96728.38
2022-11-04T22:38:44.739Z,96736.38
2022-11-04T22:41:14.509Z,96736.56
2022-11-04T22:43:41.349Z,96741.16
2022-11-04T22:46:15.634Z,96741.63
2022-11-04T22:48:42.880Z,96754.66
2022-11-04T22:51:10.343Z,96743.94
2022-11-04T22:53:38.611Z,96750.91
2022-11-04T22:56:07.500Z,96754.25
2022-11-04T22:58:34.370Z,96753.19
2022-11-04T23:01:05.190Z,96762.97
2022-11-04T23:03:32.537Z,96769.19
2022-11-04T23:06:01.680Z,96761.41
2022-11-04T23:08:30.101Z,96761.47
2022-11-04T23:11:18.567Z,96774.44
2022-11-04T23:14:09.487Z,96762.25
2022-11-04T23:16:55.386Z,96776.28
2022-11-04T23:19:24.713Z,96776.28
2022-11-04T23:22:13.486Z,96773.47
2022-11-04T23:24:58.582Z,96776.13
2022-11-04T23:27:43.804Z,96776.84
2022-11-04T23:30:21.772Z,96778.63
2022-11-04T23:32:49.604Z,96783.03
2022-11-04T23:35:35.562Z,96783.16
2022-11-04T23:38:02.348Z,96781.53
2022-11-04T23:40:31.134Z,96785.69
2022-11-04T23:42:57.983Z,96788.31
2022-11-04T23:45:44.231Z,96790.09
2022-11-04T23:48:30.040Z,96791.03
2022-11-04T23:51:16.696Z,96792.25
2022-11-04T23:54:02.546Z,96806.44
2022-11-04T23:56:47.865Z,96803.38
2022-11-04T23:59:34.996Z,96808.81
